• Join FlightAware (Why Join?)
  • Login
  • US Flag 
08:14PM EDT


 

Airport Tracker/Info


-or-


 

Live Flight TrackerFlight Track Log ✈ AWE3397 ✈ 20-Apr-2013 ✈ KPHL - KMSY

Flight Track Log - Related Links

Times and Time Zones

All times are in EDT time to prevent confusion due to time zone crossing. See the AWE3397 flight status page for this flight to view local times or setup timezone preferences in your user account.

Time Position Orientation Groundspeed Altitude Reporting Facility
EDT Latitude Longitude Course Direction KTS MPH feet Rate Location/Type
08:18AM 39.8667 -75.2667 247° West 150 173 600  Level Philadelphia TRACON
08:18AM 39.8544 -75.3047 247° West 144 166 1,900 1,740 Climbing FAA TRACON SMA TRACON (SMA)
08:18AM 39.8500 -75.3225 252° West 168 193 2,200 1,320 Climbing FAA TRACON SMA TRACON (SMA)
08:19AM 39.8442 -75.3442 251° West 189 217 2,800 2,220 Climbing FAA TRACON SMA TRACON (SMA)
08:19AM 39.8372 -75.3703 251° West 202 232 3,700 2,100 Climbing FAA TRACON SMA TRACON (SMA)
08:19AM 39.8333 -75.3931 257° West 218 251 4,200 1,920 Climbing FAA TRACON SMA TRACON (SMA)
08:20AM 39.8339 -75.4206 272° West 221 254 5,000 2,820 Climbing FAA TRACON SMA TRACON (SMA)
08:20AM 39.8344 -75.4519 271° West 232 267 6,100 3,000 Climbing FAA TRACON SMA TRACON (SMA)
08:20AM 39.8347 -75.4772 271° West 228 262 7,000 2,220 Climbing FAA TRACON SMA TRACON (SMA)
08:21AM 39.8350 -75.5042 271° West 228 262 7,600 2,520 Climbing FAA TRACON SMA TRACON (SMA)
08:21AM 39.8356 -75.5356 271° West 234 269 8,700 2,520 Climbing FAA TRACON SMA TRACON (SMA)
08:21AM 39.8353 -75.5617 269° West 238 274 9,300 1,800 Climbing FAA TRACON SMA TRACON (SMA)
08:22AM 39.8361 -75.5897 272° West 242 278 9,900 1,800 Climbing FAA TRACON SMA TRACON (SMA)
08:22AM 39.8364 -75.6256 271° West 252 290 10,500 1,800 Climbing FAA TRACON SMA TRACON (SMA)
08:22AM 39.8367 -75.6542 271° West 256 295 11,100 1,920 Climbing FAA TRACON SMA TRACON (SMA)
08:23AM 39.8369 -75.6875 271° West 256 295 11,800 1,500 Climbing FAA TRACON SMA TRACON (SMA)
08:23AM 39.8375 -75.7175 271° West 255 293 12,100 1,200 Climbing FAA TRACON SMA TRACON (SMA)
08:23AM 39.8378 -75.7464 271° West 254 292 12,600 1,740 Climbing FAA TRACON SMA TRACON (SMA)
08:24AM 39.8383 -75.7747 271° West 254 292 13,300 2,400 Climbing FAA TRACON SMA TRACON (SMA)
08:24AM 39.8375 -75.8094 268° West 251 289 14,200 2,280 Climbing FAA TRACON SMA TRACON (SMA)
08:25AM 39.8325 -75.8431 259° West 250 288 14,900 1,620 Climbing FAA TRACON SMA TRACON (SMA)
08:25AM 39.8283 -75.8711 259° West 255 293 15,400 1,440 Climbing FAA TRACON SMA TRACON (SMA)
08:25AM 39.8178 -75.8950 240° Southwest 253 291 15,800 1,440 Climbing FAA TRACON SMA TRACON (SMA)
08:25AM 39.8064 -75.9211 240° Southwest 259 298 16,300 1,500 Climbing FAA TRACON SMA TRACON (SMA)
08:26AM 39.7953 -75.9464 240° Southwest 262 302 16,800 1,620 Climbing FAA TRACON SMA TRACON (SMA)
08:26AM 39.7814 -75.9781 240° Southwest 266 306 17,400 1,800 Climbing FAA TRACON SMA TRACON (SMA)
08:26AM 39.7700 -76.0039 240° Southwest 267 307 18,000 1,020 Climbing FAA TRACON SMA TRACON (SMA)
08:27AM 39.7672 -76.0106 242° Southwest 267 307 18,100 120 Climbing FAA TRACON SMA TRACON (SMA)
08:27AM 39.7672 -76.0106 57° Northeast 267 307 18,100 1,740 Level FAA TRACON SMA TRACON (SMA)
08:30AM 39.6597 -76.2464 239° Southwest 265 305 23,000 1,740 Climbing Washington Center
08:31AM 39.6175 -76.3269 236° Southwest 265 305 24,100 1,200 Climbing Washington Center
08:32AM 39.5817 -76.4128 242° Southwest 265 305 25,500 1,260 Climbing Washington Center
08:33AM 39.5456 -76.4983 241° Southwest 271 312 26,700 1,200 Climbing Washington Center
08:34AM 39.4950 -76.5811 232° Southwest 282 325 27,900 1,080 Climbing Washington Center
08:35AM 39.4486 -76.6531 230° Southwest 282 325 28,900 900 Climbing Washington Center
08:36AM 39.3956 -76.7328 229° Southwest 282 325 29,800 900 Climbing Washington Center
08:37AM 39.3450 -76.8125 231° Southwest 282 325 30,700 780 Climbing Washington Center
08:38AM 39.2942 -76.8894 230° Southwest 282 325 31,400 900 Climbing Washington Center
08:39AM 39.2389 -76.9717 229° Southwest 288 331 32,500 900 Climbing Washington Center
08:40AM 39.1881 -77.0511 230° Southwest 293 337 33,300 720 Climbing Washington Center
08:41AM 39.1350 -77.1303 229° Southwest 293 337 34,000 300 Climbing Washington Center
08:42AM 39.0817 -77.2094 229° Southwest 298 343 34,000  Level Washington Center
08:43AM 39.0306 -77.2883 230° Southwest 298 343 34,000  Level Washington Center
08:44AM 38.9775 -77.3647 228° Southwest 298 343 34,000  Level Washington Center
08:45AM 38.9261 -77.4433 230° Southwest 298 343 34,000  Level Washington Center
08:46AM 38.8686 -77.5272 229° Southwest 298 343 34,000  Level Washington Center
08:47AM 38.8131 -77.6083 229° Southwest 298 343 34,000  Level Washington Center
08:48AM 38.7639 -77.6869 231° Southwest 298 343 34,000  Level Washington Center
08:49AM 38.7083 -77.7653 228° Southwest 298 343 34,000  Level Washington Center
08:50AM 38.6547 -77.8461 230° Southwest 298 343 34,000  Level Washington Center
08:51AM 38.6050 -77.9294 233° Southwest 298 343 34,000  Level Washington Center
08:52AM 38.5556 -78.0131 233° Southwest 298 343 34,000  Level Washington Center
08:53AM 38.5058 -78.0989 234° Southwest 298 343 34,000  Level Washington Center
08:54AM 38.4561 -78.1847 234° Southwest 298 343 34,000  Level Washington Center
08:55AM 38.4042 -78.2703 232° Southwest 303 349 34,000  Level Washington Center
08:56AM 38.3542 -78.3533 233° Southwest 303 349 34,000  Level Washington Center
08:57AM 38.3064 -78.4389 235° Southwest 308 354 34,000  Level Washington Center
08:58AM 38.2542 -78.5242 232° Southwest 308 354 34,000  Level Washington Center
08:59AM 38.2128 -78.5992 235° Southwest 308 354 34,000  Level Washington Center
09:00AM 38.1625 -78.6842 233° Southwest 308 354 34,000  Level Washington Center
09:01AM 38.1103 -78.7692 232° Southwest 308 354 34,000  Level Washington Center
09:02AM 38.0581 -78.8539 232° Southwest 308 354 34,000  Level Washington Center
09:03AM 38.0011 -78.9489 233° Southwest 308 354 34,000  Level Washington Center
09:04AM 37.9486 -79.0361 233° Southwest 308 354 34,000  Level Washington Center
09:05AM 37.8981 -79.1233 234° Southwest 308 354 34,000  Level Washington Center
09:06AM 37.8517 -79.2158 238° Southwest 308 354 34,000  Level Washington Center
09:07AM 37.8072 -79.3031 237° Southwest 313 360 34,000  Level Washington Center
09:08AM 37.7625 -79.3956 239° Southwest 318 366 34,000  Level Washington Center
09:09AM 37.7072 -79.4950 235° Southwest 318 366 34,000  Level Washington Center
09:10AM 37.6603 -79.5897 238° Southwest 318 366 34,000  Level Washington Center
09:11AM 37.6133 -79.6869 239° Southwest 323 372 34,000  Level Washington Center
09:12AM 37.5639 -79.7839 237° Southwest 323 372 34,000  Level Washington Center
09:13AM 37.4867 -79.9331 237° Southwest 340 391 34,000  Level Atlanta Center
09:14AM 37.4378 -80.0297 238° Southwest 340 391 34,000  Level Atlanta Center
09:15AM 37.3847 -80.1342 237° Southwest 335 386 34,000  Level Atlanta Center
09:16AM 37.3358 -80.2308 238° Southwest 335 386 34,000  Level Atlanta Center
09:17AM 37.2867 -80.3269 237° Southwest 335 386 34,000  Level Atlanta Center
09:18AM 37.2353 -80.4233 236° Southwest 335 386 34,000  Level Atlanta Center
09:19AM 37.1919 -80.5086 237° Southwest 335 386 34,000  Level Atlanta Center
09:20AM 37.1425 -80.6019 236° Southwest 335 386 34,000  Level Atlanta Center
09:21AM 37.0911 -80.7031 238° Southwest 335 386 34,000  Level Atlanta Center
09:22AM 37.0522 -80.8061 245° Southwest 335 386 34,000  Level Atlanta Center
09:23AM 37.0114 -80.9222 246° West 329 379 34,000  Level Atlanta Center
09:24AM 36.9617 -81.0203 238° Southwest 329 379 34,000  Level Atlanta Center
09:25AM 36.9119 -81.1156 237° Southwest 335 386 34,000  Level Atlanta Center
09:26AM 36.8642 -81.2133 239° Southwest 340 391 34,000  Level Atlanta Center
09:27AM 36.8100 -81.3086 235° Southwest 340 391 34,000  Level Atlanta Center
09:28AM 36.7661 -81.4033 240° Southwest 340 391 34,000  Level Atlanta Center
09:29AM 36.7119 -81.5061 237° Southwest 335 386 34,000  Level Atlanta Center
09:30AM 36.6617 -81.5983 236° Southwest 335 386 34,000  Level Atlanta Center
09:31AM 36.6117 -81.6981 238° Southwest 340 391 34,000  Level Atlanta Center
09:32AM 36.5611 -81.7953 237° Southwest 340 391 34,000  Level Atlanta Center
09:33AM 36.5189 -81.8739 236° Southwest 340 391 34,000  Level Atlanta Center
09:34AM 36.4583 -81.9917 237° Southwest 340 391 34,000  Level Atlanta Center
09:35AM 36.4056 -82.0886 236° Southwest 340 391 34,000  Level Atlanta Center
09:36AM 36.3531 -82.1878 237° Southwest 340 391 34,000  Level Atlanta Center
09:37AM 36.3003 -82.2869 237° Southwest 350 403 34,000  Level Atlanta Center
09:38AM 36.2472 -82.3833 236° Southwest 350 403 34,000  Level Atlanta Center
09:39AM 36.1944 -82.4822 237° Southwest 350 403 34,000  Level Atlanta Center
09:40AM 36.1475 -82.5706 237° Southwest 350 403 34,000  Level Atlanta Center
09:41AM 36.0944 -82.6717 237° Southwest 350 403 34,000  Level Atlanta Center
09:42AM 36.0414 -82.7675 236° Southwest 350 403 34,000  Level Atlanta Center
09:43AM 35.9881 -82.8658 236° Southwest 350 403 34,000  Level Atlanta Center
09:44AM 35.9347 -82.9642 236° Southwest 350 403 34,000  Level Atlanta Center
09:45AM 35.8833 -83.0622 237° Southwest 350 403 34,000  Level Atlanta Center
09:46AM 35.8278 -83.1603 235° Southwest 350 403 34,000  Level Atlanta Center
09:47AM 35.7700 -83.2683 237° Southwest 350 403 34,000  Level Atlanta Center
09:48AM 35.7164 -83.3661 236° Southwest 350 403 34,000  Level Atlanta Center
09:49AM 35.6647 -83.4586 236° Southwest 350 403 34,000  Level Atlanta Center
09:50AM 35.6108 -83.5558 236° Southwest 350 403 34,000  Level Atlanta Center
09:51AM 35.5569 -83.6533 236° Southwest 350 403 34,000  Level Atlanta Center
09:52AM 35.5050 -83.7506 237° Southwest 350 403 34,000  Level Atlanta Center
09:53AM 35.4489 -83.8475 235° Southwest 350 403 34,000  Level Atlanta Center
09:54AM 35.3969 -83.9419 236° Southwest 350 403 34,000  Level Atlanta Center
09:55AM 35.3428 -84.0414 236° Southwest 350 403 34,000  Level Atlanta Center
09:56AM 35.2864 -84.1381 234° Southwest 350 403 34,000  Level Atlanta Center
09:57AM 35.2319 -84.2319 235° Southwest 350 403 34,000  Level Atlanta Center
09:58AM 35.1775 -84.3283 235° Southwest 350 403 34,000  Level Atlanta Center
09:59AM 35.1231 -84.4272 236° Southwest 350 403 34,000  Level Atlanta Center
10:00AM 35.0706 -84.5236 236° Southwest 350 403 34,000  Level Atlanta Center
10:01AM 35.0139 -84.6194 234° Southwest 350 403 34,000  Level Atlanta Center
10:02AM 34.9592 -84.7156 235° Southwest 350 403 34,000  Level Atlanta Center
10:03AM 34.9042 -84.8139 236° Southwest 350 403 34,000  Level Atlanta Center
10:04AM 34.8556 -84.8944 234° Southwest 350 403 34,000  Level Atlanta Center
10:05AM 34.8008 -84.9900 235° Southwest 350 403 34,000  Level Atlanta Center
10:06AM 34.7436 -85.0878 235° Southwest 350 403 34,000  Level Atlanta Center
10:07AM 34.6906 -85.1856 237° Southwest 350 403 34,000  Level Atlanta Center
10:08AM 34.6333 -85.2808 234° Southwest 350 403 34,000  Level Atlanta Center
10:09AM 34.5781 -85.3758 235° Southwest 350 403 34,000  Level Atlanta Center
10:10AM 34.5206 -85.4733 234° Southwest 355 409 34,000  Level Atlanta Center
10:11AM 34.4653 -85.5706 235° Southwest 355 409 34,000  Level Atlanta Center
10:12AM 34.4097 -85.6653 235° Southwest 350 403 34,000  Level Atlanta Center
10:13AM 34.3478 -85.7722 235° Southwest 350 403 34,000  Level Atlanta Center
10:14AM 34.2964 -85.8542 233° Southwest 350 403 34,000  Level Atlanta Center
10:15AM 34.2408 -85.9486 235° Southwest 350 403 34,000  Level Atlanta Center
10:16AM 34.1828 -86.0425 233° Southwest 355 409 34,000  Level Atlanta Center
10:17AM 34.1269 -86.1367 234° Southwest 349 402 34,000  Level Atlanta Center
10:18AM 34.0711 -86.2331 235° Southwest 354 407 34,000  Level Atlanta Center
10:19AM 34.0131 -86.3294 234° Southwest 354 407 34,000  Level Atlanta Center
10:20AM 33.9547 -86.4256 234° Southwest 354 407 34,000  Level Atlanta Center
10:21AM 33.8967 -86.5214 234° Southwest 354 407 34,000  Level Atlanta Center
10:22AM 33.8403 -86.6197 235° Southwest 354 407 34,000  Level Atlanta Center
10:23AM 33.7819 -86.7131 233° Southwest 354 407 34,000  Level Atlanta Center
10:24AM 33.7211 -86.8161 235° Southwest 354 407 34,000  Level Atlanta Center
10:25AM 33.6606 -86.9139 233° Southwest 354 407 34,000  Level Atlanta Center
10:26AM 33.6000 -87.0067 232° Southwest 354 407 34,000  Level Atlanta Center
10:27AM 33.5392 -87.0992 232° Southwest 359 413 34,000  Level Atlanta Center
10:28AM 33.4764 -87.1917 231° Southwest 359 413 34,000  Level Atlanta Center
10:29AM 33.4133 -87.2814 230° Southwest 359 413 34,000  Level Atlanta Center
10:30AM 33.3503 -87.3761 231° Southwest 364 419 34,000  Level Atlanta Center
10:31AM 33.2892 -87.4731 233° Southwest 364 419 34,000  Level Atlanta Center
10:33AM 33.1461 -87.6800 230° Southwest 364 419 34,000  Level Memphis Center
10:34AM 33.0833 -87.7739 231° Southwest 364 419 34,000  Level Memphis Center
10:35AM 33.0206 -87.8672 231° Southwest 364 419 34,000  Level Memphis Center
10:36AM 32.9600 -87.9656 234° Southwest 369 425 34,000  Level Memphis Center
10:37AM 32.8928 -88.0614 230° Southwest 374 430 34,000  Level Memphis Center
10:38AM 32.8278 -88.1569 231° Southwest 380 437 34,000  Level Memphis Center
10:39AM 32.7625 -88.2525 231° Southwest 380 437 34,000  Level Memphis Center
10:40AM 32.6975 -88.3478 231° Southwest 380 437 34,000  Level Memphis Center
10:41AM 32.6319 -88.4406 230° Southwest 380 437 34,000  Level Memphis Center
10:42AM 32.5647 -88.5381 231° Southwest 380 437 34,000  Level Memphis Center
10:43AM 32.5014 -88.6331 232° Southwest 380 437 34,000  Level Memphis Center
10:44AM 32.4358 -88.7278 231° Southwest 380 437 34,000  Level Memphis Center
10:45AM 32.3639 -88.8225 228° Southwest 385 443 34,000  Level Memphis Center
10:46AM 32.2792 -88.9028 219° Southwest 390 449 34,000  Level Memphis Center
10:47AM 32.1967 -88.9825 219° Southwest 395 455 34,000  Level Memphis Center
10:48AM 32.1119 -89.0647 219° Southwest 395 455 34,000  Level Memphis Center
10:49AM 32.0292 -89.1469 220° Southwest 400 460 34,000 -720 Level Memphis Center
10:50AM 31.9464 -89.2239 218° Southwest 400 460 32,600 -4,020 Descending Memphis Center
10:51AM 31.8617 -89.3056 219° Southwest 400 460 26,000 -2,100 Descending Memphis Center
10:52AM 31.7767 -89.3872 219° Southwest 400 460 28,400  Climbing Memphis Center
10:54AM 31.6703 -89.4886 219° Southwest 401 461 26,000 -1,080 Descending Houston Center
10:55AM 31.5908 -89.5639 219° Southwest 389 448 26,000 -420 Level Houston Center
10:56AM 31.5050 -89.6458 219° Southwest 396 456 25,200 -1,020 Descending Houston Center
10:57AM 31.4217 -89.7236 219° Southwest 388 447 24,000 -600 Descending Houston Center
10:58AM 31.3317 -89.8189 222° Southwest 365 420 24,000  Level Houston Center
10:59AM 31.2797 -89.9150 238° Southwest 349 402 24,000  Level Houston Center
11:00AM 31.1919 -89.9794 212° Southwest 389 448 24,000 -60 Level Houston Center
11:01AM 31.0828 -90.0172 197° South 407 468 23,900 -1,380 Descending Houston Center
11:02AM 30.9736 -90.0550 197° South 408 470 21,200 -2,760 Descending Houston Center
11:03AM 30.8983 -90.1364 223° Southwest 376 433 18,300 -2,760 Descending Houston Center
11:04AM 30.8217 -90.1617 196° South 353 406 16,600 -2,640 Descending Houston Center
11:04AM 30.7844 -90.1656 185° South 352 405 15,600 -1,800 Descending Houston Center
11:04AM 30.7342 -90.1750 189° South 339 390 15,000 -720 Descending Houston Center
11:05AM 30.6917 -90.1800 186° South 341 392 14,900 -480 Descending Houston Center
11:06AM 30.6114 -90.1919 187° South 336 387 14,400 -1,500 Descending Houston Center
11:07AM 30.5200 -90.2031 186° South 326 375 12,200 -1,920 Descending Houston Center
11:07AM 30.5092 -90.2053 190° South 331 381 12,000 -1,740 Descending Houston Center
11:07AM 30.4706 -90.2292 208° Southwest 287 330 11,000 -1,800 Descending Houston Center
11:08AM 30.4392 -90.2489 208° Southwest 297 342 10,200 -1,920 Descending Houston Center
11:09AM 30.3947 -90.2781 210° Southwest 285 328 9,100 -2,160 Descending Houston Center
11:09AM 30.3561 -90.3006 207° Southwest 287 330 8,000 -1,800 Descending Houston Center
11:10AM 30.3225 -90.3097 193° South 281 323 7,300 -1,860 Descending Houston Center
11:10AM 30.2817 -90.3225 195° South 279 321 6,100 -2,100 Descending Houston Center
11:11AM 30.2458 -90.3344 196° South 281 323 5,200 -1,800 Descending Houston Center
11:11AM 30.2075 -90.3506 200° South 279 321 4,300 -1,200 Descending Houston Center
11:12AM 30.1717 -90.3639 198° South 283 326 4,000 -420 Descending Houston Center
11:12AM 30.1342 -90.3783 198° South 280 322 3,900  Descending Houston Center
11:13AM 30.1014 -90.3906 198° South 273 314 4,000 -240 Climbing Houston Center
11:13AM 30.0656 -90.4064 201° Southwest 273 314 3,700 -1,020 Descending Houston Center
11:14AM 30.0331 -90.4172 196° South 226 260 3,000 -720 Descending Houston Center
11:14AM 30.0036 -90.4222 188° South 249 287 3,000  Level Houston Center
11:15AM 29.9686 -90.4222 180° South 226 260 3,000  Level Houston Center
11:15AM 29.9278 -90.4222 180° South 232 267 3,000 -120 Level Houston Center
11:16AM 29.9017 -90.4222 180° South 226 260 2,900 -600 Descending Houston Center
11:16AM 29.8672 -90.4214 179° South 226 260 2,400 -840 Descending Houston Center
11:17AM 29.8447 -90.4078 152° Southeast 190 219 2,100 -300 Descending Houston Center
11:17AM 29.8372 -90.3806 108° East 203 234 2,100  Level Houston Center
11:18AM 29.8308 -90.3556 106° East 169 194 2,100  Level Houston Center
11:18AM 29.8369 -90.3297 75° East 179 206 2,100  Level Houston Center